Česky Dansk Deutsch English Español Suomi Français Magyar Italiano Nederlands norsk Polski Português svenska Türkçe

 

Het Weer

Iquique / Diego Arac (Chili)

19:00, 21 juli 2016 (GMT)

NWNNE
WE
SWSSE
Home            
Iquique / Diego Arac Arica Tacna Antofagasta Charana Oruro Potosi Arequipa La Paz / Alto La Quiaca Observatorio Sucre Cochabamba Juliaca Tarija Chanaral Apolo Oran Aerodrome Jujuy Aerodrome Salta Aerodrome Yacuiba Camiri Tartagal Aerodrome Villamontes

Om een weerknop op uw website of weblog te plaatsen, copieer onderstaande code en plak die in uw pagina. In het eerste vakje staat HTML-code, in het tweede vakje UBB-code.


Add to Google

Details

Wind speed:2 bf, 5 kn, 2.6 m/s, 5.8 miles/h, 9.3 km/h
Wind direction:W, 270°
Visibility:Greater than 10000 m, 10 km, 32800 ft, 6.2 miles
Clouds:CAVOC
Temperature:17°C, 63°F
Dew-point:11°C, 52°F
Atmospheric pressure:1016 hPa, 762.1 mmHg, 30.00 inHg, 1.003 atm
Relative humidity:67.7 %
METAR:SCDA 211900Z 27005KT CAVOK 17/11 Q1016

Snelkoppelingen

Actuele weersinformatie van de hele wereld. Voeg locaties toe met het plus (+) symbool. Deze snelkoppelingen kunnen worden toegevoegd aan Google.

Lid van de Technetium groep

website free tracking
StatCounter NetStat W3C Validator

21-01-2021 02:29:13
astro.technetium.be money.technetium.be phote.technetium.be tafeltennistafel.technetium.be www.ligfiets.net